Time;durP1;ratioP1;P1;durP2;ratioP2;P2;SDS_P1;SDS_P2;PMS_P1;PMS_P2;Temp;Humidity;BMP_temperature;BMP_pressure;BME280_temperature;BME280_humidity;BME280_pressure;Samples;Min_cycle;Max_cycle;Signal;HPM_P1;HPM_P2
2022/10/21 00:00:55;;;;;;;47.88;25.20;;;12.40;99.90;;;;;;5111746;28;20460;-67
2022/10/21 00:03:23;;;;;;;51.17;26.08;;;12.30;99.90;;;;;;5101950;28;20036;-71
2022/10/21 00:05:49;;;;;;;44.92;26.48;;;12.30;99.90;;;;;;5091399;28;20346;-66
2022/10/21 00:08:16;;;;;;;48.42;26.48;;;12.30;99.90;;;;;;5090073;28;20036;-67
2022/10/21 00:10:42;;;;;;;51.08;27.45;;;12.30;99.90;;;;;;5090292;28;20028;-67
2022/10/21 00:13:08;;;;;;;46.75;26.92;;;12.30;99.90;;;;;;5087728;28;20404;-67
2022/10/21 00:15:34;;;;;;;43.90;27.15;;;12.30;99.90;;;;;;5088308;28;20031;-67
2022/10/21 00:17:59;;;;;;;52.40;25.88;;;12.20;99.90;;;;;;5090537;28;20039;-67
2022/10/21 00:20:25;;;;;;;48.70;26.90;;;12.20;99.90;;;;;;5084343;28;20052;-68
2022/10/21 00:22:50;;;;;;;40.38;24.50;;;12.20;99.90;;;;;;5090820;28;20024;-67
2022/10/21 00:25:16;;;;;;;50.00;26.65;;;12.20;99.90;;;;;;5091084;28;20073;-69
2022/10/21 00:27:42;;;;;;;49.25;27.40;;;12.20;99.90;;;;;;5088438;28;20082;-67
2022/10/21 00:30:08;;;;;;;48.00;26.02;;;12.20;99.90;;;;;;5090584;28;20457;-67
2022/10/21 00:32:34;;;;;;;47.58;25.45;;;12.20;99.90;;;;;;5090218;28;20500;-67
2022/10/21 00:34:59;;;;;;;45.63;26.92;;;12.20;99.90;;;;;;5073251;28;20032;-67
2022/10/21 00:37:28;;;;;;;53.55;26.92;;;12.10;99.90;;;;;;5069886;28;20032;-69
2022/10/21 00:39:54;;;;;;;44.97;26.23;;;12.10;99.90;;;;;;5070697;28;20032;-66
2022/10/21 00:42:21;;;;;;;43.33;25.90;;;12.10;99.90;;;;;;5078402;28;20027;-67
2022/10/21 00:45:16;;;;;;;52.25;28.80;;;12.10;99.90;;;;;;5090081;28;20028;-67
2022/10/21 00:48:01;;;;;;;49.40;27.35;;;12.10;99.90;;;;;;5089364;28;20039;-67
2022/10/21 00:50:35;;;;;;;47.83;25.75;;;12.10;99.90;;;;;;5071551;28;20044;-67
2022/10/21 00:53:03;;;;;;;52.83;27.42;;;12.10;99.90;;;;;;5091459;28;20028;-67
2022/10/21 00:55:33;;;;;;;43.38;27.13;;;12.10;99.90;;;;;;5092326;28;20131;-66
2022/10/21 00:58:01;;;;;;;39.17;24.55;;;12.20;99.90;;;;;;5094082;28;20508;-66
2022/10/21 01:00:26;;;;;;;43.60;24.90;;;12.10;99.90;;;;;;5093728;28;20020;-67
2022/10/21 01:02:52;;;;;;;52.83;30.02;;;12.20;99.90;;;;;;5094231;28;20538;-67
2022/10/21 01:05:18;;;;;;;52.95;26.92;;;12.20;99.90;;;;;;5094324;28;20020;-67
2022/10/21 01:07:47;;;;;;;55.67;29.40;;;12.20;99.90;;;;;;5096997;28;20071;-67
2022/10/21 01:10:12;;;;;;;44.38;26.38;;;12.20;99.90;;;;;;5109641;28;20028;-67
2022/10/21 01:13:01;;;;;;;51.55;26.63;;;12.20;99.90;;;;;;5093558;28;20112;-67
2022/10/21 01:15:43;;;;;;;48.40;25.08;;;12.30;99.90;;;;;;5062498;28;20041;-67
2022/10/21 01:18:19;;;;;;;43.30;26.42;;;12.30;99.90;;;;;;5086143;28;20036;-66
2022/10/21 01:21:08;;;;;;;45.55;25.40;;;12.20;99.90;;;;;;5093381;28;20028;-66
2022/10/21 01:23:39;;;;;;;47.20;25.63;;;12.20;99.90;;;;;;5093178;28;20054;-66
2022/10/21 01:26:35;;;;;;;42.20;24.65;;;12.20;99.90;;;;;;5092518;28;20082;-66
2022/10/21 01:29:22;;;;;;;34.65;23.45;;;12.10;99.90;;;;;;5091585;28;20055;-66
2022/10/21 01:32:25;;;;;;;39.05;24.88;;;12.10;99.90;;;;;;5093153;28;20032;-66
2022/10/21 01:35:02;;;;;;;40.58;23.65;;;12.10;99.90;;;;;;5093912;28;20433;-66
2022/10/21 01:37:28;;;;;;;43.85;24.85;;;12.10;99.90;;;;;;5092384;28;20042;-68
2022/10/21 01:40:10;;;;;;;50.08;26.55;;;12.00;99.90;;;;;;5093827;28;20047;-66
2022/10/21 01:42:48;;;;;;;46.15;25.70;;;12.00;99.90;;;;;;5091831;28;20066;-68
2022/10/21 01:45:29;;;;;;;47.83;26.02;;;12.10;99.90;;;;;;5101934;28;20023;-68
2022/10/21 01:48:12;;;;;;;47.30;24.73;;;12.10;99.90;;;;;;5094383;28;20039;-66
2022/10/21 01:50:43;;;;;;;38.40;23.90;;;12.10;99.90;;;;;;5092169;28;20059;-68
2022/10/21 01:53:12;;;;;;;45.33;24.35;;;12.10;99.90;;;;;;5093489;28;20076;-68
2022/10/21 01:55:40;;;;;;;38.87;23.33;;;12.10;99.90;;;;;;5091585;28;20134;-68
2022/10/21 01:58:12;;;;;;;47.00;25.88;;;12.10;99.90;;;;;;5092451;28;20035;-67
2022/10/21 02:00:39;;;;;;;41.22;23.27;;;12.10;99.90;;;;;;5092304;28;20093;-68
2022/10/21 02:03:10;;;;;;;38.88;23.30;;;12.20;99.90;;;;;;5093425;28;20099;-68
2022/10/21 02:05:36;;;;;;;;;;;12.20;99.90;;;;;;5091066;28;20381;-68
2022/10/21 02:08:02;;;;;;;37.28;21.38;;;12.30;99.90;;;;;;5079892;28;20007;-67
2022/10/21 02:10:35;;;;;;;37.03;21.40;;;12.40;99.90;;;;;;5072493;28;20026;-71
2022/10/21 02:13:03;;;;;;;36.38;20.65;;;12.40;99.90;;;;;;5092585;28;20508;-66
2022/10/21 02:15:31;;;;;;;33.95;20.55;;;12.50;99.90;;;;;;5090762;28;20098;-72
2022/10/21 02:18:06;;;;;;;39.35;21.42;;;12.50;99.90;;;;;;5092832;28;20158;-66
2022/10/21 02:20:37;;;;;;;34.90;20.02;;;12.50;99.90;;;;;;5085745;28;20031;-67
2022/10/21 02:23:03;;;;;;;35.97;19.83;;;12.60;99.90;;;;;;5091642;28;20039;-67
2022/10/21 02:25:33;;;;;;;29.50;18.80;;;12.60;99.90;;;;;;5091267;28;20471;-73
2022/10/21 02:27:59;;;;;;;32.03;18.80;;;12.60;99.90;;;;;;5092345;28;20032;-67
2022/10/21 02:30:25;;;;;;;29.67;18.90;;;12.60;99.90;;;;;;5091719;28;20051;-68
2022/10/21 02:32:59;;;;;;;35.80;21.10;;;12.60;99.90;;;;;;5090806;28;20107;-68
2022/10/21 02:35:31;;;;;;;33.10;19.73;;;12.60;99.90;;;;;;5092664;28;20450;-67
2022/10/21 02:38:18;;;;;;;30.63;19.88;;;12.60;99.90;;;;;;5092397;28;20054;-67
2022/10/21 02:41:06;;;;;;;38.60;21.55;;;12.60;99.90;;;;;;5090825;28;20024;-67
2022/10/21 02:43:36;;;;;;;30.48;18.27;;;12.60;99.90;;;;;;5091487;28;20381;-67
2022/10/21 02:46:10;;;;;;;28.58;19.40;;;12.60;99.90;;;;;;5092708;28;20027;-67
2022/10/21 02:48:38;;;;;;;35.03;20.73;;;12.60;99.90;;;;;;5091462;28;20125;-66
2022/10/21 02:51:06;;;;;;;39.95;22.25;;;12.60;99.90;;;;;;5077065;28;20498;-66
2022/10/21 02:53:32;;;;;;;49.30;24.15;;;12.70;99.90;;;;;;5101380;28;20024;-70
2022/10/21 02:55:58;;;;;;;34.25;22.33;;;12.70;99.90;;;;;;5092039;28;20469;-67
2022/10/21 02:58:23;;;;;;;31.30;21.40;;;12.80;99.90;;;;;;5091695;28;20039;-67
2022/10/21 03:00:49;;;;;;;37.97;19.85;;;12.90;99.90;;;;;;5090901;28;20035;-66
2022/10/21 03:03:15;;;;;;;34.17;20.63;;;12.90;99.90;;;;;;5091951;28;20021;-67
2022/10/21 03:05:40;;;;;;;34.33;19.02;;;12.90;99.90;;;;;;5091245;28;20478;-67
2022/10/21 03:08:06;;;;;;;34.58;20.92;;;12.90;99.90;;;;;;5085126;28;20431;-67
2022/10/21 03:10:31;;;;;;;42.33;21.95;;;12.90;99.90;;;;;;5090681;28;20106;-72
2022/10/21 03:12:57;;;;;;;33.45;20.83;;;13.00;99.90;;;;;;5091892;28;20054;-68
2022/10/21 03:15:23;;;;;;;34.83;20.13;;;13.00;99.90;;;;;;5091710;28;20032;-67
2022/10/21 03:17:48;;;;;;;35.05;20.83;;;12.90;99.90;;;;;;5090800;28;20899;-67
2022/10/21 03:20:14;;;;;;;27.73;19.00;;;13.00;99.90;;;;;;5092272;28;20102;-67
2022/10/21 03:22:40;;;;;;;26.73;18.00;;;12.90;99.90;;;;;;5075325;28;20032;-67
2022/10/21 03:25:06;;;;;;;30.98;18.67;;;12.90;99.90;;;;;;5090306;28;20024;-67
2022/10/21 03:27:33;;;;;;;34.70;21.05;;;12.90;99.90;;;;;;5091453;28;20039;-71
2022/10/21 03:29:58;;;;;;;37.65;22.45;;;12.90;99.90;;;;;;5074024;28;20051;-68
2022/10/21 03:32:24;;;;;;;29.25;18.80;;;12.90;99.90;;;;;;5089644;28;20484;-68
2022/10/21 03:34:49;;;;;;;37.22;22.40;;;12.90;99.90;;;;;;5091170;28;20027;-68
2022/10/21 03:37:15;;;;;;;39.97;21.73;;;13.00;99.90;;;;;;5091849;28;20036;-67
2022/10/21 03:39:41;;;;;;;35.53;21.25;;;13.10;99.90;;;;;;5090867;28;20414;-67
2022/10/21 03:42:06;;;;;;;43.35;22.42;;;13.10;99.90;;;;;;5089730;28;20151;-67
2022/10/21 03:44:32;;;;;;;36.75;21.60;;;13.20;99.90;;;;;;5091272;28;20020;-73
2022/10/21 03:46:58;;;;;;;31.27;19.13;;;13.20;99.90;;;;;;5091351;28;20055;-67
2022/10/21 03:49:23;;;;;;;25.48;18.27;;;13.20;99.90;;;;;;5091229;28;20481;-67
2022/10/21 03:51:49;;;;;;;31.38;18.75;;;13.30;99.90;;;;;;5089642;28;20101;-68
2022/10/21 03:54:15;;;;;;;31.70;17.48;;;13.40;99.90;;;;;;5091166;28;20051;-67
2022/10/21 03:56:41;;;;;;;33.50;16.88;;;13.30;99.90;;;;;;5090890;28;20027;-66
2022/10/21 03:59:06;;;;;;;26.38;15.93;;;13.40;99.90;;;;;;5089812;28;20036;-67
2022/10/21 04:01:32;;;;;;;32.38;17.95;;;13.40;99.90;;;;;;5089971;28;20026;-73
2022/10/21 04:03:57;;;;;;;34.33;19.80;;;13.40;99.90;;;;;;5072586;28;20035;-68
2022/10/21 04:06:23;;;;;;;29.05;17.95;;;13.50;99.90;;;;;;5091657;28;20449;-68
2022/10/21 04:08:48;;;;;;;32.28;19.38;;;13.50;99.90;;;;;;5090252;28;20080;-68
2022/10/21 04:11:14;;;;;;;29.25;18.92;;;13.40;99.90;;;;;;5090932;28;20032;-67
2022/10/21 04:13:40;;;;;;;27.77;18.52;;;13.40;99.90;;;;;;5096486;28;20033;-67
2022/10/21 04:16:10;;;;;;;30.77;18.92;;;13.50;99.90;;;;;;5091403;28;20028;-67
2022/10/21 04:18:36;;;;;;;26.95;17.95;;;13.50;99.90;;;;;;5090559;28;20458;-72
2022/10/21 04:21:02;;;;;;;28.00;18.50;;;13.40;99.90;;;;;;5084489;28;20028;-67
2022/10/21 04:23:27;;;;;;;28.55;20.10;;;13.40;99.90;;;;;;5089830;28;20406;-67
2022/10/21 04:25:53;;;;;;;29.33;19.80;;;13.40;99.90;;;;;;5082379;28;20119;-67
2022/10/21 04:28:18;;;;;;;29.45;18.98;;;13.40;99.90;;;;;;5080963;28;20024;-68
2022/10/21 04:30:44;;;;;;;31.15;19.95;;;13.30;99.90;;;;;;5084959;28;20103;-68
2022/10/21 04:33:09;;;;;;;37.95;21.08;;;13.30;99.90;;;;;;5087770;28;20039;-68
2022/10/21 04:35:38;;;;;;;29.15;19.00;;;13.30;99.90;;;;;;5083039;28;20350;-71
2022/10/21 04:38:04;;;;;;;30.30;21.60;;;13.20;99.90;;;;;;5084389;28;20077;-68
2022/10/21 04:40:29;;;;;;;30.13;19.38;;;13.20;99.90;;;;;;5084363;28;20080;-68
2022/10/21 04:42:55;;;;;;;30.25;20.42;;;13.20;99.90;;;;;;5084165;28;20590;-67
2022/10/21 04:45:21;;;;;;;36.05;21.40;;;13.20;99.90;;;;;;5066514;28;20027;-68
2022/10/21 04:47:46;;;;;;;34.67;20.98;;;13.20;99.90;;;;;;5082540;28;20115;-67
2022/10/21 04:50:12;;;;;;;32.50;21.23;;;13.20;99.90;;;;;;5088131;28;20076;-67
2022/10/21 04:52:38;;;;;;;38.42;22.08;;;13.20;99.90;;;;;;5085923;28;20021;-73
2022/10/21 04:55:04;;;;;;;32.95;20.02;;;13.30;99.90;;;;;;5084254;28;20509;-67
2022/10/21 04:57:30;;;;;;;31.13;19.80;;;13.30;99.90;;;;;;5065288;28;20052;-67
2022/10/21 04:59:56;;;;;;;34.83;20.98;;;13.30;99.90;;;;;;5084414;28;20732;-67
2022/10/21 05:02:21;;;;;;;28.85;19.10;;;13.30;99.90;;;;;;5084287;28;20056;-67
2022/10/21 05:04:47;;;;;;;34.47;19.55;;;13.30;99.90;;;;;;5084346;28;20074;-68
2022/10/21 05:07:13;;;;;;;25.08;15.20;;;13.30;99.90;;;;;;5086067;28;20111;-67
2022/10/21 05:09:38;;;;;;;28.52;13.75;;;13.30;99.90;;;;;;5092668;28;20527;-68
2022/10/21 05:12:04;;;;;;;18.35;6.68;;;13.50;99.90;;;;;;5093682;28;20060;-66
2022/10/21 05:14:30;;;;;;;19.73;6.25;;;13.70;99.90;;;;;;5094369;28;20433;-67
2022/10/21 05:16:56;;;;;;;18.02;5.85;;;14.00;99.90;;;;;;5094034;28;20040;-66
2022/10/21 05:19:21;;;;;;;16.98;6.15;;;14.20;99.90;;;;;;5094663;28;20378;-67
2022/10/21 05:21:47;;;;;;;17.15;5.72;;;14.40;99.90;;;;;;5079428;28;20082;-67
2022/10/21 05:24:14;;;;;;;18.08;6.10;;;14.50;99.90;;;;;;5107739;28;20027;-67
2022/10/21 05:26:39;;;;;;;15.82;5.55;;;14.60;99.90;;;;;;5114324;28;20031;-68
2022/10/21 05:29:05;;;;;;;18.50;5.90;;;14.60;99.90;;;;;;5114935;28;20153;-67
2022/10/21 05:31:30;;;;;;;17.50;5.35;;;14.70;99.90;;;;;;5093539;28;20028;-67
2022/10/21 05:33:56;;;;;;;17.40;6.10;;;14.70;99.90;;;;;;5093575;28;20083;-68
2022/10/21 05:36:22;;;;;;;14.30;4.32;;;14.70;99.90;;;;;;5086893;28;20040;-69
2022/10/21 05:38:48;;;;;;;15.13;4.90;;;14.80;99.90;;;;;;5080866;28;20021;-67
2022/10/21 05:41:15;;;;;;;13.50;4.50;;;14.90;99.90;;;;;;5083346;28;20108;-67
2022/10/21 05:43:41;;;;;;;17.13;4.40;;;15.00;99.90;;;;;;5081664;28;20017;-68
2022/10/21 05:46:07;;;;;;;14.38;4.95;;;15.20;99.90;;;;;;5086306;28;20028;-68
2022/10/21 05:48:33;;;;;;;23.70;5.18;;;15.20;99.90;;;;;;5093409;28;20054;-67
2022/10/21 05:50:59;;;;;;;12.23;4.68;;;15.20;99.90;;;;;;5057545;28;20597;-67
2022/10/21 05:53:25;;;;;;;19.75;5.78;;;15.20;99.90;;;;;;5114144;28;20119;-68
2022/10/21 05:56:09;;;;;;;13.90;4.90;;;15.20;99.90;;;;;;5062454;28;20078;-68
2022/10/21 05:58:35;;;;;;;16.10;4.63;;;15.10;99.90;;;;;;5114011;28;20070;-68
2022/10/21 06:01:01;;;;;;;16.95;4.97;;;15.10;99.90;;;;;;5090542;28;20594;-69
2022/10/21 06:03:29;;;;;;;16.15;5.35;;;15.00;99.90;;;;;;5093106;28;20047;-67
2022/10/21 06:05:56;;;;;;;13.32;4.80;;;15.00;99.90;;;;;;5090325;28;20028;-68
2022/10/21 06:08:22;;;;;;;16.67;5.28;;;15.00;99.90;;;;;;5077119;28;20040;-67
2022/10/21 06:10:48;;;;;;;16.17;4.95;;;15.00;99.90;;;;;;5076617;28;20032;-67
2022/10/21 06:13:14;;;;;;;20.25;5.05;;;15.00;99.90;;;;;;5093517;28;20035;-67
2022/10/21 06:15:39;;;;;;;14.68;5.15;;;15.00;99.90;;;;;;5088501;28;20465;-71
2022/10/21 06:18:05;;;;;;;14.90;5.10;;;14.90;99.90;;;;;;5072598;28;20466;-70
2022/10/21 06:20:31;;;;;;;21.20;5.93;;;14.90;99.90;;;;;;5079475;28;20074;-70
2022/10/21 06:22:59;;;;;;;18.88;5.72;;;14.90;99.90;;;;;;5091481;28;20043;-68
2022/10/21 06:25:25;;;;;;;14.63;5.63;;;14.90;99.90;;;;;;5093077;28;20024;-68
2022/10/21 06:27:51;;;;;;;20.35;5.80;;;14.80;99.90;;;;;;5091680;28;20039;-69
2022/10/21 06:30:17;;;;;;;17.48;6.40;;;14.80;99.90;;;;;;5091743;28;20492;-70
2022/10/21 06:32:43;;;;;;;19.67;5.45;;;14.70;99.90;;;;;;5095001;28;20024;-70
2022/10/21 06:35:08;;;;;;;18.92;6.43;;;14.70;99.90;;;;;;5084060;28;20035;-68
2022/10/21 06:37:34;;;;;;;15.25;6.72;;;14.70;99.90;;;;;;5083387;28;20497;-69
2022/10/21 06:39:59;;;;;;;19.17;5.95;;;14.60;99.90;;;;;;5088369;28;20503;-69
2022/10/21 06:42:25;;;;;;;17.85;5.50;;;14.60;99.90;;;;;;5091869;28;20051;-68
2022/10/21 06:44:51;;;;;;;17.52;6.38;;;14.60;99.90;;;;;;5091897;28;20484;-74
2022/10/21 06:47:16;;;;;;;14.70;5.80;;;14.60;99.90;;;;;;5083813;28;20032;-70
2022/10/21 06:49:42;;;;;;;15.68;5.30;;;14.60;99.90;;;;;;5079362;28;20036;-73
2022/10/21 06:52:07;;;;;;;13.73;5.68;;;14.60;99.90;;;;;;5076776;28;20382;-72
2022/10/21 06:54:36;;;;;;;18.10;6.80;;;14.50;99.90;;;;;;5058623;28;20035;-72
2022/10/21 06:57:02;;;;;;;17.75;5.75;;;14.50;99.90;;;;;;5091434;28;20467;-70
2022/10/21 06:59:29;;;;;;;13.13;5.72;;;14.50;99.90;;;;;;5083759;28;20062;-71
2022/10/21 07:01:54;;;;;;;15.70;6.30;;;14.50;99.90;;;;;;5084230;28;20032;-71
2022/10/21 07:04:20;;;;;;;19.25;7.07;;;14.50;99.90;;;;;;5084550;28;20032;-70
2022/10/21 07:06:45;;;;;;;14.38;6.50;;;14.50;99.90;;;;;;5075272;28;20489;-71
2022/10/21 07:09:11;;;;;;;21.05;7.20;;;14.60;99.90;;;;;;5091229;28;20118;-71
2022/10/21 07:11:37;;;;;;;16.08;6.13;;;14.50;99.90;;;;;;5091706;28;20483;-70
2022/10/21 07:14:03;;;;;;;19.60;6.05;;;14.50;99.90;;;;;;5078095;28;20036;-72
2022/10/21 07:16:31;;;;;;;15.95;6.25;;;14.50;99.90;;;;;;5081103;28;20366;-70
2022/10/21 07:18:57;;;;;;;15.93;5.90;;;14.50;99.90;;;;;;5086503;28;20028;-72
2022/10/21 07:21:25;;;;;;;17.08;6.20;;;14.50;99.90;;;;;;5087765;28;20034;-74
2022/10/21 07:23:54;;;;;;;16.17;6.28;;;14.60;99.90;;;;;;5091020;28;20094;-73
2022/10/21 07:26:22;;;;;;;20.30;6.63;;;14.60;99.90;;;;;;5074985;28;20032;-74
2022/10/21 07:28:48;;;;;;;15.55;6.43;;;14.60;99.90;;;;;;5089410;28;20031;-73
2022/10/21 07:31:19;;;;;;;15.68;6.45;;;14.60;99.90;;;;;;5086165;28;20524;-74
2022/10/21 07:33:45;;;;;;;20.65;6.82;;;14.60;99.90;;;;;;5084188;28;20032;-76
2022/10/21 07:36:20;;;;;;;23.63;6.60;;;14.70;99.90;;;;;;5084906;28;20406;-74
2022/10/21 07:38:47;;;;;;;24.15;9.05;;;14.80;99.90;;;;;;5059247;28;20082;-73
2022/10/21 07:41:18;;;;;;;16.77;8.13;;;14.80;99.90;;;;;;5085596;28;20059;-72
2022/10/21 07:43:44;;;;;;;18.75;6.72;;;14.90;99.90;;;;;;5090991;28;20030;-72
2022/10/21 07:46:09;;;;;;;18.30;7.75;;;14.80;99.90;;;;;;5091291;28;20046;-72
2022/10/21 07:48:35;;;;;;;20.63;7.07;;;14.70;99.90;;;;;;5091085;28;20469;-73
2022/10/21 07:51:03;;;;;;;16.13;6.75;;;14.70;99.90;;;;;;5063979;28;20349;-73
2022/10/21 07:53:29;;;;;;;20.75;7.70;;;14.70;99.90;;;;;;5066569;28;20028;-72
2022/10/21 07:56:10;;;;;;;16.70;7.80;;;14.70;99.90;;;;;;5059755;28;20105;-72
2022/10/21 07:58:35;;;;;;;23.40;9.80;;;14.70;99.90;;;;;;5058199;28;20024;-72
2022/10/21 08:01:04;;;;;;;23.05;8.07;;;14.70;99.90;;;;;;5066203;28;20294;-73
2022/10/21 08:03:30;;;;;;;15.95;7.38;;;14.60;99.90;;;;;;5073717;28;20028;-73
2022/10/21 08:05:55;;;;;;;17.70;6.70;;;14.60;99.90;;;;;;5074045;28;20036;-72
2022/10/21 08:08:22;;;;;;;19.35;6.53;;;14.70;99.90;;;;;;5066732;28;20073;-73
2022/10/21 08:10:49;;;;;;;21.85;7.78;;;14.70;99.90;;;;;;5062840;28;20047;-73
2022/10/21 08:13:15;;;;;;;17.75;6.32;;;14.70;99.90;;;;;;5065876;28;20040;-71
2022/10/21 08:15:49;;;;;;;15.65;6.88;;;14.70;99.90;;;;;;5064994;28;20028;-73
2022/10/21 08:18:15;;;;;;;16.45;6.80;;;14.70;99.90;;;;;;5074360;28;20033;-73
2022/10/21 08:20:43;;;;;;;16.40;6.88;;;14.70;99.90;;;;;;5069893;28;20031;-71
2022/10/21 08:23:14;;;;;;;18.00;7.75;;;14.70;99.90;;;;;;5074511;28;20025;-73
2022/10/21 08:25:46;;;;;;;19.75;7.72;;;14.80;99.90;;;;;;5058296;28;20070;-73
2022/10/21 08:28:11;;;;;;;17.70;8.80;;;14.80;99.90;;;;;;5072430;28;20036;-73
2022/10/21 08:30:37;;;;;;;18.25;7.90;;;14.80;99.90;;;;;;5074369;28;20020;-73
2022/10/21 08:33:03;;;;;;;16.05;7.82;;;14.80;99.90;;;;;;5058833;28;20104;-73
2022/10/21 08:35:32;;;;;;;20.50;7.53;;;14.70;99.90;;;;;;5069705;28;20025;-72
2022/10/21 08:37:58;;;;;;;20.93;8.17;;;14.70;99.90;;;;;;5064275;28;20060;-72
2022/10/21 08:40:24;;;;;;;15.82;8.00;;;14.70;99.90;;;;;;5056711;28;20334;-72
2022/10/21 08:42:50;;;;;;;17.08;9.18;;;14.70;99.90;;;;;;5059913;28;20033;-73
2022/10/21 08:45:30;;;;;;;20.10;8.63;;;14.70;99.90;;;;;;5069842;28;20112;-72
2022/10/21 08:48:02;;;;;;;17.98;8.93;;;14.70;99.90;;;;;;5063141;28;20048;-73
2022/10/21 08:50:34;;;;;;;12.20;7.20;;;14.70;99.90;;;;;;5065666;28;20123;-72
2022/10/21 08:53:26;;;;;;;14.68;7.63;;;14.70;99.90;;;;;;5061190;28;20044;-72
2022/10/21 08:55:59;;;;;;;17.42;8.73;;;14.60;99.90;;;;;;5058234;28;20020;-72
2022/10/21 08:58:24;;;;;;;17.02;9.02;;;14.60;99.90;;;;;;5065929;28;20436;-72
2022/10/21 09:01:21;;;;;;;14.05;7.43;;;14.60;99.90;;;;;;5061231;28;20025;-72
2022/10/21 09:03:53;;;;;;;13.35;7.90;;;14.70;99.90;;;;;;5055985;28;20116;-74
2022/10/21 09:06:27;;;;;;;18.92;9.15;;;14.70;99.90;;;;;;5069798;28;20044;-73
2022/10/21 09:09:33;;;;;;;16.60;8.18;;;14.70;99.90;;;;;;5068909;28;20032;-72
2022/10/21 09:12:30;;;;;;;20.58;9.40;;;14.70;99.90;;;;;;5037339;28;20022;-72
2022/10/21 09:15:01;;;;;;;24.95;10.43;;;14.70;99.90;;;;;;5056262;28;20434;-72
2022/10/21 09:17:47;;;;;;;19.70;10.02;;;14.70;99.90;;;;;;5062442;28;20082;-72
2022/10/21 09:20:37;;;;;;;23.35;10.52;;;14.80;99.90;;;;;;5067931;28;20087;-73
2022/10/21 09:23:10;;;;;;;18.75;9.40;;;14.80;99.90;;;;;;5061824;28;20095;-72
2022/10/21 09:25:58;;;;;;;20.27;9.23;;;14.90;99.90;;;;;;5067259;28;20028;-74
2022/10/21 09:28:25;;;;;;;15.85;7.13;;;15.00;99.90;;;;;;5073043;28;20033;-73
2022/10/21 09:30:52;;;;;;;16.83;6.40;;;15.00;99.90;;;;;;5072464;28;20028;-74
2022/10/21 09:33:30;;;;;;;14.60;5.78;;;15.10;99.90;;;;;;5056094;28;20032;-73
2022/10/21 09:36:06;;;;;;;12.93;5.03;;;15.20;99.90;;;;;;5066968;28;20124;-72
2022/10/21 09:38:55;;;;;;;7.93;4.43;;;15.30;99.90;;;;;;5063504;28;20067;-73
2022/10/21 09:41:25;;;;;;;12.75;4.40;;;15.40;99.90;;;;;;5040556;28;20037;-73
2022/10/21 09:43:50;;;;;;;10.77;4.45;;;15.50;99.90;;;;;;5067866;28;20025;-74
2022/10/21 09:46:17;;;;;;;10.25;4.35;;;15.60;99.90;;;;;;5058893;28;20364;-73
2022/10/21 09:48:49;;;;;;;10.10;4.35;;;15.70;99.90;;;;;;5068513;28;20033;-73
2022/10/21 09:51:20;;;;;;;11.82;3.30;;;15.70;99.90;;;;;;5085581;28;20499;-72
2022/10/21 09:54:03;;;;;;;8.82;3.90;;;15.80;99.90;;;;;;5084732;28;20385;-74
2022/10/21 09:56:45;;;;;;;7.43;3.67;;;15.80;99.90;;;;;;5079678;28;20038;-73
2022/10/21 09:59:13;;;;;;;10.02;3.70;;;15.80;99.90;;;;;;5092224;28;20102;-73
2022/10/21 10:01:41;;;;;;;8.32;2.97;;;15.80;99.90;;;;;;5076089;28;20649;-73
2022/10/21 10:04:32;;;;;;;6.35;2.80;;;15.90;99.90;;;;;;5085048;28;20663;-72
2022/10/21 10:07:25;;;;;;;6.60;2.92;;;16.00;99.90;;;;;;5084469;28;20037;-73
2022/10/21 10:09:51;;;;;;;11.20;2.75;;;16.10;99.90;;;;;;5090679;28;20031;-74
2022/10/21 10:12:22;;;;;;;6.85;2.38;;;16.20;99.90;;;;;;5092767;28;20107;-73
2022/10/21 10:14:48;;;;;;;7.95;2.50;;;16.30;99.90;;;;;;5087808;28;20434;-74
2022/10/21 10:17:22;;;;;;;8.82;2.60;;;16.40;99.90;;;;;;5077884;28;20032;-73
2022/10/21 10:20:03;;;;;;;5.72;2.40;;;16.50;99.90;;;;;;5088640;28;20054;-74
2022/10/21 10:22:36;;;;;;;5.15;2.53;;;16.60;99.90;;;;;;5093010;28;20035;-73
2022/10/21 10:25:10;;;;;;;8.30;2.70;;;16.60;99.90;;;;;;5084170;28;20046;-73
2022/10/21 10:27:47;;;;;;;7.38;3.00;;;16.60;99.90;;;;;;5091836;28;20421;-73
2022/10/21 10:30:14;;;;;;;7.90;2.63;;;16.60;99.90;;;;;;5092460;28;20032;-76
2022/10/21 10:32:40;;;;;;;7.97;2.92;;;16.60;99.90;;;;;;5093043;28;20032;-75
2022/10/21 10:35:16;;;;;;;9.05;2.80;;;16.60;99.90;;;;;;5086048;28;20024;-77
2022/10/21 10:37:47;;;;;;;7.75;2.70;;;16.70;99.90;;;;;;5091781;28;20035;-78
2022/10/21 10:40:23;;;;;;;6.57;2.53;;;16.80;99.90;;;;;;5091985;28;20043;-77
2022/10/21 10:42:55;;;;;;;6.20;3.13;;;16.80;99.90;;;;;;5092697;28;20377;-73
2022/10/21 10:45:22;;;;;;;8.23;2.70;;;16.90;99.90;;;;;;5092686;28;20032;-73
2022/10/21 10:47:53;;;;;;;6.43;2.65;;;16.80;99.90;;;;;;5090656;28;20472;-74
2022/10/21 10:50:37;;;;;;;9.35;3.40;;;16.80;99.90;;;;;;5091784;28;20093;-69
2022/10/21 10:53:27;;;;;;;10.13;2.60;;;16.80;99.90;;;;;;5083702;28;20035;-70
2022/10/21 10:56:05;;;;;;;;;;;16.90;99.90;;;;;;5091900;28;20376;-70
2022/10/21 10:58:37;;;;;;;8.50;3.05;;;16.80;99.90;;;;;;5086766;28;19912;-72
2022/10/21 11:01:09;;;;;;;9.00;3.40;;;16.90;99.90;;;;;;5091386;28;20163;-72
2022/10/21 11:03:47;;;;;;;13.13;3.30;;;16.90;99.90;;;;;;5091776;28;20346;-73
2022/10/21 11:06:16;;;;;;;7.05;3.13;;;17.00;99.90;;;;;;5090998;28;20028;-72
2022/10/21 11:08:48;;;;;;;5.50;2.70;;;17.00;99.90;;;;;;5089412;28;20047;-71
2022/10/21 11:11:23;;;;;;;10.45;2.83;;;17.10;99.90;;;;;;5076386;28;20032;-72
2022/10/21 11:13:49;;;;;;;7.07;3.10;;;17.20;99.90;;;;;;5076188;28;20021;-72
2022/10/21 11:16:44;;;;;;;10.27;2.72;;;17.20;99.90;;;;;;5091255;28;20024;-72
2022/10/21 11:19:19;;;;;;;8.77;2.70;;;17.30;99.90;;;;;;5090161;28;20024;-72
2022/10/21 11:21:53;;;;;;;5.38;2.33;;;17.40;99.90;;;;;;5092187;28;20032;-72
2022/10/21 11:24:33;;;;;;;7.32;2.92;;;17.60;99.90;;;;;;5091070;28;20052;-72
2022/10/21 11:27:26;;;;;;;7.78;2.45;;;17.90;99.90;;;;;;5091337;28;20477;-72
2022/10/21 11:30:11;;;;;;;8.35;3.00;;;18.00;99.90;;;;;;5034535;28;20040;-71
2022/10/21 11:32:48;;;;;;;9.50;3.10;;;18.20;99.90;;;;;;5077380;28;20115;-72
2022/10/21 11:35:37;;;;;;;10.73;3.38;;;18.20;99.90;;;;;;5081475;28;20016;-70
2022/10/21 11:38:32;;;;;;;8.23;2.50;;;18.30;99.90;;;;;;5076152;28;20068;-71
2022/10/21 11:41:21;;;;;;;4.82;2.50;;;18.30;99.90;;;;;;5089362;28;20493;-71
2022/10/21 11:44:11;;;;;;;8.43;2.30;;;18.40;99.90;;;;;;5086934;28;20388;-72
2022/10/21 11:47:01;;;;;;;9.43;2.50;;;18.50;99.90;;;;;;5087310;28;20465;-70
2022/10/21 11:49:42;;;;;;;7.53;2.00;;;18.60;99.90;;;;;;5084778;28;20055;-72
2022/10/21 11:52:15;;;;;;;8.52;2.00;;;18.70;99.90;;;;;;5084401;28;20032;-70
2022/10/21 11:54:46;;;;;;;7.25;1.98;;;18.80;99.90;;;;;;5090476;28;20082;-72
2022/10/21 11:57:26;;;;;;;3.53;1.77;;;18.90;99.90;;;;;;5083956;28;20125;-73
2022/10/21 11:59:54;;;;;;;8.10;2.25;;;18.90;99.90;;;;;;5090541;28;20094;-72
2022/10/21 12:02:24;;;;;;;7.22;1.50;;;18.90;99.90;;;;;;5077924;28;20521;-72
2022/10/21 12:05:21;;;;;;;2.17;1.52;;;18.80;99.90;;;;;;5071982;28;20500;-71
2022/10/21 12:07:49;;;;;;;4.45;1.55;;;18.80;99.90;;;;;;5080430;28;20107;-72
2022/10/21 12:10:30;;;;;;;4.88;1.58;;;18.80;99.90;;;;;;5082924;28;20591;-72
2022/10/21 12:13:01;;;;;;;6.72;1.70;;;18.80;99.90;;;;;;5073259;28;20472;-72
2022/10/21 12:15:49;;;;;;;5.85;1.45;;;18.70;99.90;;;;;;5079162;28;20040;-71
2022/10/21 12:18:19;;;;;;;2.65;1.48;;;18.60;99.90;;;;;;5083760;28;20117;-72
2022/10/21 12:20:48;;;;;;;2.72;1.17;;;18.50;99.90;;;;;;5075852;28;20397;-72
2022/10/21 12:23:17;;;;;;;6.22;2.00;;;18.30;99.90;;;;;;5081484;28;20489;-73
2022/10/21 12:26:02;;;;;;;3.90;1.45;;;18.30;99.90;;;;;;5087448;28;20030;-72
2022/10/21 12:28:44;;;;;;;4.55;1.40;;;18.20;99.90;;;;;;5087338;28;20036;-72
2022/10/21 12:31:18;;;;;;;2.13;1.15;;;18.20;99.90;;;;;;5075697;28;20426;-72
2022/10/21 12:33:46;;;;;;;3.47;1.10;;;18.20;99.90;;;;;;5078787;28;20043;-72
2022/10/21 12:36:43;;;;;;;3.13;1.35;;;18.20;99.90;;;;;;5084757;28;20819;-72
2022/10/21 12:39:47;;;;;;;1.50;1.23;;;18.10;99.90;;;;;;5095254;28;20542;-72
2022/10/21 12:42:16;;;;;;;3.47;1.13;;;18.10;99.90;;;;;;5083598;28;20078;-73
2022/10/21 12:44:51;;;;;;;2.78;1.20;;;18.10;99.90;;;;;;5085534;28;20481;-72
2022/10/21 12:47:43;;;;;;;1.55;0.88;;;18.00;99.90;;;;;;5069293;28;20447;-72
2022/10/21 12:50:18;;;;;;;4.65;1.20;;;18.00;99.90;;;;;;5082943;28;20037;-72
2022/10/21 12:52:46;;;;;;;2.47;0.85;;;17.90;99.90;;;;;;5084854;28;20036;-72
2022/10/21 12:55:22;;;;;;;1.23;0.85;;;17.90;99.90;;;;;;5086097;28;20042;-72